Time;durP1;ratioP1;P1;durP2;ratioP2;P2;SDS_P1;SDS_P2;PMS_P1;PMS_P2;Temp;Humidity;BMP_temperature;BMP_pressure;BME280_temperature;BME280_humidity;BME280_pressure;Samples;Min_cycle;Max_cycle;Signal;HPM_P1;HPM_P2
2023/04/03 00:00:34;;;;;;;11.27;4.87;;;0.70;99.90;;;;;;5072695;28;20032;-47
2023/04/03 00:03:00;;;;;;;9.77;5.40;;;0.60;99.90;;;;;;5072598;28;20369;-49
2023/04/03 00:05:26;;;;;;;9.70;5.23;;;0.60;99.90;;;;;;5072307;28;20032;-48
2023/04/03 00:07:51;;;;;;;11.83;5.63;;;0.60;99.90;;;;;;5072172;28;20055;-48
2023/04/03 00:10:17;;;;;;;11.30;4.93;;;0.60;99.90;;;;;;5072452;28;20025;-47
2023/04/03 00:12:43;;;;;;;12.43;5.37;;;0.60;99.90;;;;;;5072405;28;20020;-50
2023/04/03 00:15:09;;;;;;;14.40;5.13;;;0.60;99.90;;;;;;5072152;28;20244;-49
2023/04/03 00:17:35;;;;;;;8.90;4.93;;;0.60;99.90;;;;;;5072112;28;20064;-48
2023/04/03 00:20:01;;;;;;;12.17;5.53;;;0.60;99.90;;;;;;5072112;28;20105;-48
2023/04/03 00:22:28;;;;;;;11.73;5.40;;;0.60;99.90;;;;;;5072212;28;20081;-49
2023/04/03 00:24:54;;;;;;;10.37;5.00;;;0.60;99.90;;;;;;5072035;28;20028;-48
2023/04/03 00:27:20;;;;;;;10.63;5.47;;;0.60;99.90;;;;;;5071941;28;20103;-51
2023/04/03 00:29:46;;;;;;;12.90;5.27;;;0.60;99.90;;;;;;5071972;28;20170;-49
2023/04/03 00:32:11;;;;;;;12.13;5.67;;;0.60;99.90;;;;;;5054598;28;20544;-49
2023/04/03 00:34:37;;;;;;;11.87;4.67;;;0.60;99.90;;;;;;5071657;28;20028;-47
2023/04/03 00:37:03;;;;;;;10.77;5.40;;;0.50;99.90;;;;;;5071619;28;20405;-52
2023/04/03 00:39:29;;;;;;;10.60;5.60;;;0.50;99.90;;;;;;5071837;28;20052;-46
2023/04/03 00:41:54;;;;;;;11.60;5.27;;;0.50;99.90;;;;;;5071787;28;20509;-47
2023/04/03 00:44:41;;;;;;;11.87;5.83;;;0.50;99.90;;;;;;5071654;28;20529;-51
2023/04/03 00:47:10;;;;;;;13.77;6.27;;;0.40;99.90;;;;;;5071261;28;20032;-52
2023/04/03 00:49:38;;;;;;;9.95;6.25;;;0.50;99.90;;;;;;5071594;28;20024;-51
2023/04/03 00:52:06;;;;;;;15.40;6.23;;;0.50;99.90;;;;;;5053777;28;20033;-50
2023/04/03 00:54:35;;;;;;;17.20;6.30;;;0.50;99.90;;;;;;5053355;28;20032;-49
2023/04/03 00:57:01;;;;;;;13.07;6.53;;;0.40;99.90;;;;;;5071252;28;20074;-53
2023/04/03 00:59:40;;;;;;;15.17;6.40;;;0.50;99.90;;;;;;5053309;28;20056;-50
2023/04/03 01:02:06;;;;;;;16.43;7.03;;;0.50;99.90;;;;;;5071314;28;20032;-50
2023/04/03 01:04:33;;;;;;;17.10;6.40;;;0.60;99.90;;;;;;5071266;28;20439;-49
2023/04/03 01:07:10;;;;;;;12.60;6.80;;;0.60;99.90;;;;;;5053020;28;20032;-50
2023/04/03 01:09:36;;;;;;;13.67;6.77;;;0.60;99.90;;;;;;5071151;28;20626;-48
2023/04/03 01:12:26;;;;;;;15.03;6.40;;;0.70;99.90;;;;;;5053101;28;20078;-49
2023/04/03 01:14:57;;;;;;;13.55;7.78;;;0.70;99.90;;;;;;5070979;28;20043;-48
2023/04/03 01:17:38;;;;;;;13.50;7.90;;;0.80;99.90;;;;;;5070930;28;20028;-49
2023/04/03 01:20:28;;;;;;;12.13;6.93;;;0.80;99.90;;;;;;5070996;28;20032;-49
2023/04/03 01:23:02;;;;;;;19.23;7.77;;;0.90;99.90;;;;;;5071041;28;20033;-48
2023/04/03 01:25:29;;;;;;;14.23;7.47;;;0.90;99.90;;;;;;5071233;28;20488;-47
2023/04/03 01:27:57;;;;;;;17.83;8.52;;;0.90;99.90;;;;;;5070181;28;20024;-51
2023/04/03 01:30:30;;;;;;;19.30;9.17;;;1.00;99.90;;;;;;5070886;28;20524;-51
2023/04/03 01:32:56;;;;;;;14.63;7.87;;;1.00;99.90;;;;;;5052803;28;20043;-47
2023/04/03 01:35:23;;;;;;;13.70;7.63;;;1.00;99.90;;;;;;5052775;28;20488;-48
2023/04/03 01:37:50;;;;;;;16.60;8.80;;;1.00;99.90;;;;;;5052628;28;20081;-49
2023/04/03 01:40:16;;;;;;;16.53;8.77;;;1.10;99.90;;;;;;5070758;28;20119;-50
2023/04/03 01:42:42;;;;;;;15.17;9.20;;;1.10;99.90;;;;;;5052671;28;20035;-48
2023/04/03 01:45:09;;;;;;;15.40;8.70;;;1.10;99.90;;;;;;5052614;28;20029;-52
2023/04/03 01:47:34;;;;;;;15.77;8.43;;;1.10;99.90;;;;;;5070382;28;20219;-50
2023/04/03 01:50:00;;;;;;;15.10;8.10;;;1.20;99.90;;;;;;5052898;28;20149;-52
2023/04/03 01:52:30;;;;;;;16.40;8.80;;;1.20;99.90;;;;;;5052663;28;20039;-47
2023/04/03 01:54:56;;;;;;;15.47;8.10;;;1.20;99.90;;;;;;5052433;28;20554;-47
2023/04/03 01:57:21;;;;;;;15.07;7.80;;;1.20;99.90;;;;;;5052451;28;20086;-49
2023/04/03 01:59:47;;;;;;;15.70;7.93;;;1.20;99.90;;;;;;5052435;28;20028;-48
2023/04/03 02:02:14;;;;;;;14.10;8.17;;;1.20;99.90;;;;;;5052447;28;20024;-48
2023/04/03 02:04:40;;;;;;;18.43;8.10;;;1.20;99.90;;;;;;5070400;28;20032;-47
2023/04/03 02:07:06;;;;;;;13.03;7.50;;;1.20;99.90;;;;;;5052237;28;20476;-47
2023/04/03 02:09:32;;;;;;;16.13;7.67;;;1.20;99.90;;;;;;5052415;28;20036;-47
2023/04/03 02:11:58;;;;;;;17.80;7.10;;;1.20;99.90;;;;;;5052408;28;20382;-52
2023/04/03 02:14:24;;;;;;;15.37;7.20;;;1.20;99.90;;;;;;5070073;28;20038;-52
2023/04/03 02:16:50;;;;;;;14.80;6.97;;;1.20;99.90;;;;;;5052139;28;20115;-52
2023/04/03 02:19:16;;;;;;;13.00;6.43;;;1.20;99.90;;;;;;5052273;28;20037;-52
2023/04/03 02:21:41;;;;;;;10.20;6.13;;;1.30;99.90;;;;;;5052304;28;20032;-49
2023/04/03 02:24:07;;;;;;;11.10;6.07;;;1.30;99.90;;;;;;5052047;28;20021;-50
2023/04/03 02:26:33;;;;;;;11.73;6.00;;;1.30;99.90;;;;;;5070099;28;20017;-48
2023/04/03 02:28:59;;;;;;;11.07;5.60;;;1.30;99.90;;;;;;5070072;28;20051;-48
2023/04/03 02:31:25;;;;;;;10.07;5.63;;;1.30;99.90;;;;;;5052570;28;20032;-49
2023/04/03 02:33:51;;;;;;;12.53;5.13;;;1.30;99.90;;;;;;5052223;28;20054;-49
2023/04/03 02:36:18;;;;;;;11.60;5.67;;;1.30;99.90;;;;;;5052054;28;20028;-51
2023/04/03 02:38:49;;;;;;;10.83;4.90;;;1.30;99.90;;;;;;5053337;28;20059;-52
2023/04/03 02:41:15;;;;;;;12.07;5.10;;;1.30;99.90;;;;;;5056080;28;20071;-51
2023/04/03 02:43:41;;;;;;;14.33;5.40;;;1.30;99.90;;;;;;5055815;28;20029;-50
2023/04/03 02:46:08;;;;;;;10.53;5.30;;;1.30;99.90;;;;;;5056050;28;20515;-49
2023/04/03 02:48:35;;;;;;;11.27;5.53;;;1.30;99.90;;;;;;5073743;28;20031;-50
2023/04/03 02:51:00;;;;;;;10.87;5.03;;;1.30;99.90;;;;;;5056087;28;20040;-51
2023/04/03 02:53:26;;;;;;;10.80;5.30;;;1.30;99.90;;;;;;5073820;28;20103;-53
2023/04/03 02:55:52;;;;;;;11.23;5.33;;;1.20;99.90;;;;;;5056014;28;20237;-52
2023/04/03 02:58:18;;;;;;;13.00;5.07;;;1.20;99.90;;;;;;5055443;28;20533;-52
2023/04/03 03:00:44;;;;;;;12.83;5.17;;;1.20;99.90;;;;;;5073715;28;20416;-48
2023/04/03 03:03:10;;;;;;;11.37;4.80;;;1.20;99.90;;;;;;5055681;28;20028;-49
2023/04/03 03:05:36;;;;;;;10.80;4.90;;;1.10;99.90;;;;;;5055544;28;20492;-50
2023/04/03 03:08:02;;;;;;;13.47;5.13;;;1.10;99.90;;;;;;5055280;28;20032;-52
2023/04/03 03:10:27;;;;;;;10.87;4.97;;;1.10;99.90;;;;;;5055669;28;20473;-52
2023/04/03 03:12:53;;;;;;;9.50;4.37;;;1.10;99.90;;;;;;5073473;28;20024;-52
2023/04/03 03:15:19;;;;;;;10.93;4.87;;;1.10;99.90;;;;;;5073400;28;20036;-50
2023/04/03 03:17:45;;;;;;;9.47;4.07;;;1.00;99.90;;;;;;5073143;28;20028;-52
2023/04/03 03:20:13;;;;;;;12.90;4.43;;;1.00;99.90;;;;;;5055469;28;20032;-53
2023/04/03 03:22:39;;;;;;;8.13;4.13;;;1.10;99.90;;;;;;5055296;28;20124;-51
2023/04/03 03:25:05;;;;;;;9.63;4.10;;;1.10;99.90;;;;;;5073106;28;20120;-51
2023/04/03 03:27:31;;;;;;;7.63;3.97;;;1.10;99.90;;;;;;5072916;28;20024;-51
2023/04/03 03:29:57;;;;;;;8.57;3.87;;;1.10;99.90;;;;;;5055368;28;20455;-51
2023/04/03 03:32:23;;;;;;;8.13;3.53;;;1.10;99.90;;;;;;5055265;28;20400;-51
2023/04/03 03:34:48;;;;;;;7.17;3.40;;;1.10;99.90;;;;;;5072953;28;20020;-52
2023/04/03 03:37:14;;;;;;;6.93;3.23;;;1.10;99.90;;;;;;5054962;28;20378;-48
2023/04/03 03:39:40;;;;;;;9.57;2.93;;;1.10;99.90;;;;;;5073043;28;20029;-49
2023/04/03 03:42:06;;;;;;;10.03;3.13;;;1.10;99.90;;;;;;5072832;28;20477;-49
2023/04/03 03:44:32;;;;;;;9.10;3.00;;;1.20;99.90;;;;;;5054903;28;20052;-48
2023/04/03 03:46:58;;;;;;;11.20;3.47;;;1.20;99.90;;;;;;5038383;28;20035;-53
2023/04/03 03:49:24;;;;;;;6.77;2.53;;;1.20;99.90;;;;;;5054386;28;20028;-49
2023/04/03 03:51:50;;;;;;;7.57;3.00;;;1.20;99.90;;;;;;5054870;28;20431;-51
2023/04/03 03:54:16;;;;;;;6.17;2.47;;;1.20;99.90;;;;;;5054679;28;20102;-51
2023/04/03 03:56:42;;;;;;;7.47;3.57;;;1.20;99.90;;;;;;5054651;28;20035;-53
2023/04/03 03:59:11;;;;;;;7.17;2.87;;;1.20;99.90;;;;;;5054569;28;20529;-52
2023/04/03 04:01:36;;;;;;;8.43;3.30;;;1.20;99.90;;;;;;5054882;28;20029;-49
2023/04/03 04:04:03;;;;;;;8.87;2.77;;;1.20;99.90;;;;;;5054397;28;20032;-52
2023/04/03 04:06:30;;;;;;;7.13;2.50;;;1.20;99.90;;;;;;5054610;28;20120;-53
2023/04/03 04:09:00;;;;;;;;;;;1.20;99.90;;;;;;5054943;28;20036;-51
2023/04/03 04:11:27;;;;;;;6.63;2.47;;;1.20;99.90;;;;;;5054495;28;20311;-49
2023/04/03 04:13:53;;;;;;;10.23;2.20;;;1.20;99.90;;;;;;5054241;28;20020;-49
2023/04/03 04:16:24;;;;;;;6.57;2.33;;;1.10;99.90;;;;;;5054271;28;20044;-51
2023/04/03 04:18:50;;;;;;;8.17;2.63;;;1.10;99.90;;;;;;5054220;28;20493;-53
2023/04/03 04:21:16;;;;;;;9.30;2.50;;;1.10;99.90;;;;;;5054291;28;20031;-50
2023/04/03 04:23:43;;;;;;;6.30;2.70;;;1.10;99.90;;;;;;5053966;28;20274;-50
2023/04/03 04:26:09;;;;;;;10.30;2.50;;;1.10;99.90;;;;;;5054141;28;20020;-53
2023/04/03 04:28:37;;;;;;;10.80;3.47;;;1.00;99.90;;;;;;5053957;28;20032;-50
2023/04/03 04:31:04;;;;;;;8.93;2.87;;;1.10;99.90;;;;;;5054149;28;20021;-52
2023/04/03 04:33:30;;;;;;;9.20;2.40;;;1.00;99.90;;;;;;5053828;28;20067;-52
2023/04/03 04:35:58;;;;;;;7.90;2.60;;;1.00;99.90;;;;;;5054028;28;20028;-47
2023/04/03 04:38:24;;;;;;;10.93;2.73;;;1.00;99.90;;;;;;5071696;28;20443;-51
2023/04/03 04:40:52;;;;;;;7.17;2.40;;;1.00;99.90;;;;;;5053818;28;20033;-52
2023/04/03 04:43:18;;;;;;;8.63;2.60;;;1.00;99.90;;;;;;5053542;28;20024;-51
2023/04/03 04:45:47;;;;;;;11.27;2.90;;;1.00;99.90;;;;;;5053905;28;20077;-52
2023/04/03 04:48:14;;;;;;;9.17;2.50;;;1.00;99.90;;;;;;5053518;28;20435;-51
2023/04/03 04:50:40;;;;;;;7.47;2.30;;;1.00;99.90;;;;;;5071541;28;20032;-48
2023/04/03 04:53:06;;;;;;;8.37;2.50;;;1.00;99.90;;;;;;5053647;28;20500;-49
2023/04/03 04:55:31;;;;;;;17.13;2.60;;;1.00;99.90;;;;;;5071562;28;20025;-49
2023/04/03 04:57:57;;;;;;;12.07;2.27;;;0.90;99.90;;;;;;5053446;28;20028;-50
2023/04/03 05:00:23;;;;;;;7.20;2.40;;;0.90;99.90;;;;;;5071482;28;20481;-50
2023/04/03 05:02:49;;;;;;;6.27;2.40;;;0.90;99.90;;;;;;5070534;28;20059;-51
2023/04/03 05:05:15;;;;;;;7.10;2.43;;;0.90;99.90;;;;;;5053232;28;20032;-49
2023/04/03 05:07:41;;;;;;;10.27;2.70;;;0.90;99.90;;;;;;5052981;28;20032;-50
2023/04/03 05:10:08;;;;;;;7.27;2.67;;;0.90;99.90;;;;;;5053564;28;20028;-50
2023/04/03 05:12:34;;;;;;;7.63;2.30;;;0.90;99.90;;;;;;5053305;28;20047;-52
2023/04/03 05:15:02;;;;;;;8.13;2.40;;;0.80;99.90;;;;;;5071045;28;20505;-50
2023/04/03 05:17:30;;;;;;;8.67;2.60;;;0.80;99.90;;;;;;5053025;28;20448;-54
2023/04/03 05:19:57;;;;;;;7.53;2.30;;;0.90;99.90;;;;;;5053022;28;20029;-50
2023/04/03 05:22:25;;;;;;;9.57;2.57;;;0.90;99.90;;;;;;5053194;28;20558;-49
2023/04/03 05:24:54;;;;;;;8.02;3.22;;;0.90;99.90;;;;;;5052908;28;20132;-49
2023/04/03 05:27:23;;;;;;;7.37;2.67;;;0.90;99.90;;;;;;5052825;28;20028;-53
2023/04/03 05:29:52;;;;;;;10.87;3.13;;;0.90;99.90;;;;;;5053034;28;20025;-51
2023/04/03 05:32:21;;;;;;;9.18;2.63;;;0.90;99.90;;;;;;5052964;28;20040;-50
2023/04/03 05:34:52;;;;;;;7.00;2.30;;;0.90;99.90;;;;;;5052647;28;20033;-51
2023/04/03 05:37:19;;;;;;;6.93;2.27;;;0.90;99.90;;;;;;5052776;28;20024;-48
2023/04/03 05:39:45;;;;;;;6.03;2.20;;;0.90;99.90;;;;;;5052866;28;20028;-49
2023/04/03 05:42:13;;;;;;;8.00;2.30;;;0.90;99.90;;;;;;5052807;28;20078;-53
2023/04/03 05:44:40;;;;;;;6.30;2.10;;;1.00;99.90;;;;;;5070580;28;20490;-52
2023/04/03 05:47:06;;;;;;;5.40;2.30;;;1.00;99.90;;;;;;5052369;28;20048;-52
2023/04/03 05:49:32;;;;;;;9.17;2.53;;;1.00;99.90;;;;;;5036121;28;20132;-51
2023/04/03 05:51:58;;;;;;;11.90;2.40;;;1.00;99.90;;;;;;5052688;28;20445;-50
2023/04/03 05:54:29;;;;;;;6.85;2.25;;;1.10;99.90;;;;;;5052339;28;20505;-51
2023/04/03 05:57:08;;;;;;;11.53;2.50;;;1.20;99.90;;;;;;5052398;28;20040;-50
2023/04/03 05:59:34;;;;;;;9.73;2.47;;;1.20;99.90;;;;;;5052484;28;20037;-48
2023/04/03 06:02:01;;;;;;;7.30;2.20;;;1.30;99.90;;;;;;5052517;28;20119;-52
2023/04/03 06:04:26;;;;;;;11.43;3.17;;;1.30;99.90;;;;;;5052254;28;20035;-49
2023/04/03 06:06:55;;;;;;;8.67;2.70;;;1.30;99.90;;;;;;5052195;28;20025;-51
2023/04/03 06:09:24;;;;;;;9.07;2.50;;;1.40;99.90;;;;;;5052328;28;20043;-52
2023/04/03 06:11:51;;;;;;;7.53;2.47;;;1.50;99.90;;;;;;5070507;28;20032;-50
2023/04/03 06:14:18;;;;;;;8.27;2.47;;;1.50;99.90;;;;;;5052041;28;20901;-49
2023/04/03 06:16:44;;;;;;;6.60;2.17;;;1.60;99.90;;;;;;5070151;28;20465;-49
2023/04/03 06:19:11;;;;;;;8.93;2.53;;;1.60;99.90;;;;;;5070308;28;20045;-49
2023/04/03 06:21:40;;;;;;;8.87;2.20;;;1.70;99.90;;;;;;5052290;28;20033;-53
2023/04/03 06:24:07;;;;;;;7.73;2.53;;;2.00;99.90;;;;;;5070200;28;20095;-51
2023/04/03 06:26:34;;;;;;;8.67;2.20;;;2.40;99.90;;;;;;5069992;28;20493;-51
2023/04/03 06:29:00;;;;;;;8.77;2.40;;;2.90;99.90;;;;;;5070179;28;20459;-53
2023/04/03 06:31:26;;;;;;;8.73;2.13;;;3.10;99.90;;;;;;5070188;28;20496;-54
2023/04/03 06:33:51;;;;;;;9.50;2.23;;;3.20;99.90;;;;;;5070146;28;20025;-52
2023/04/03 06:36:20;;;;;;;9.50;2.60;;;3.20;99.90;;;;;;5070310;28;20032;-51
2023/04/03 06:38:46;;;;;;;7.60;1.88;;;3.60;99.90;;;;;;5070261;28;20032;-49
2023/04/03 06:41:12;;;;;;;9.13;2.07;;;3.90;99.90;;;;;;5070150;28;20025;-52
2023/04/03 06:43:38;;;;;;;7.43;2.40;;;4.30;99.90;;;;;;5069824;28;20033;-51
2023/04/03 06:46:04;;;;;;;7.17;2.17;;;4.60;99.90;;;;;;5070477;28;20095;-50
2023/04/03 06:48:30;;;;;;;7.47;2.10;;;4.70;99.90;;;;;;5069801;28;20028;-52
2023/04/03 06:50:56;;;;;;;7.90;2.20;;;4.80;99.90;;;;;;5070144;28;20489;-49
2023/04/03 06:53:22;;;;;;;7.27;2.40;;;4.90;99.90;;;;;;5069893;28;20029;-53
2023/04/03 06:55:48;;;;;;;6.90;2.13;;;5.00;99.90;;;;;;5070028;28;20044;-51
2023/04/03 06:58:15;;;;;;;11.10;2.60;;;5.00;99.90;;;;;;5070173;28;20039;-49
2023/04/03 07:00:41;;;;;;;10.87;2.50;;;5.10;99.90;;;;;;5070190;28;20374;-49
2023/04/03 07:03:07;;;;;;;9.10;2.60;;;5.20;99.90;;;;;;5069948;28;20032;-51
2023/04/03 07:05:33;;;;;;;8.73;2.17;;;5.20;99.90;;;;;;5069912;28;20025;-51
2023/04/03 07:07:58;;;;;;;8.87;2.07;;;5.20;99.90;;;;;;5069777;28;20401;-48
2023/04/03 07:10:24;;;;;;;9.17;2.20;;;5.40;99.90;;;;;;5069973;28;20021;-51
2023/04/03 07:12:50;;;;;;;7.20;2.13;;;5.70;99.90;;;;;;5070107;28;20036;-48
2023/04/03 07:15:16;;;;;;;4.93;1.73;;;6.10;99.90;;;;;;5069784;28;20024;-48
2023/04/03 07:17:42;;;;;;;6.10;2.00;;;6.40;99.90;;;;;;5069638;28;20043;-50
2023/04/03 07:20:09;;;;;;;11.37;2.53;;;6.40;99.90;;;;;;5069901;28;20516;-53
2023/04/03 07:22:34;;;;;;;5.87;2.00;;;6.20;99.90;;;;;;5069844;28;20064;-48
2023/04/03 07:25:00;;;;;;;8.17;1.97;;;6.30;99.90;;;;;;5070886;28;20110;-48
2023/04/03 07:27:26;;;;;;;5.73;2.20;;;6.60;99.90;;;;;;5073232;28;20380;-49
2023/04/03 07:29:52;;;;;;;9.40;2.17;;;6.60;99.90;;;;;;5073309;28;20025;-50
2023/04/03 07:32:18;;;;;;;7.00;2.03;;;6.80;99.90;;;;;;5073374;28;20112;-52
2023/04/03 07:34:44;;;;;;;7.67;2.00;;;6.60;99.90;;;;;;5073190;28;20401;-48
2023/04/03 07:37:10;;;;;;;7.60;1.80;;;6.60;99.90;;;;;;5073120;28;20519;-49
2023/04/03 07:39:36;;;;;;;6.20;2.50;;;6.90;99.90;;;;;;5073290;28;20036;-50
2023/04/03 07:42:02;;;;;;;7.60;2.27;;;7.10;99.90;;;;;;5055402;28;20028;-48
2023/04/03 07:44:28;;;;;;;6.80;2.10;;;7.50;99.90;;;;;;5073075;28;20071;-50
2023/04/03 07:46:55;;;;;;;9.03;2.30;;;7.60;99.90;;;;;;5073095;28;20036;-48
2023/04/03 07:49:23;;;;;;;7.07;2.20;;;7.80;99.90;;;;;;5073226;28;20111;-48
2023/04/03 07:51:50;;;;;;;5.40;2.23;;;8.30;99.90;;;;;;5073222;28;20758;-48
2023/04/03 07:54:15;;;;;;;7.47;2.07;;;8.60;99.40;;;;;;5072996;28;20546;-50
2023/04/03 07:56:42;;;;;;;8.10;2.10;;;9.00;99.20;;;;;;5072997;28;20028;-50
2023/04/03 07:59:10;;;;;;;6.10;2.07;;;9.40;96.20;;;;;;5073070;28;20028;-52
2023/04/03 08:01:36;;;;;;;8.60;2.60;;;9.10;97.00;;;;;;5072880;28;20028;-49
2023/04/03 08:04:02;;;;;;;6.07;2.20;;;9.20;96.80;;;;;;5072774;28;20025;-50
2023/04/03 08:06:29;;;;;;;8.27;2.20;;;8.90;97.50;;;;;;5072657;28;20032;-49
2023/04/03 08:08:55;;;;;;;8.63;2.33;;;8.90;97.80;;;;;;5072518;28;20113;-48
2023/04/03 08:11:22;;;;;;;6.27;2.20;;;8.80;97.40;;;;;;5072919;28;20028;-46
2023/04/03 08:13:47;;;;;;;5.03;1.90;;;8.40;97.60;;;;;;5072349;28;20044;-47
2023/04/03 08:16:18;;;;;;;6.83;2.00;;;8.10;98.50;;;;;;5072492;28;20032;-47
2023/04/03 08:18:44;;;;;;;6.97;2.03;;;7.90;98.70;;;;;;5072652;28;20036;-49
2023/04/03 08:21:11;;;;;;;7.33;2.40;;;8.10;99.00;;;;;;5072278;28;20496;-49
2023/04/03 08:23:39;;;;;;;4.03;1.67;;;8.20;98.10;;;;;;5072040;28;20389;-47
2023/04/03 08:26:10;;;;;;;6.57;2.20;;;8.10;96.80;;;;;;5072448;28;20029;-48
2023/04/03 08:28:35;;;;;;;4.33;1.67;;;7.90;96.20;;;;;;5054041;28;20020;-52
2023/04/03 08:31:06;;;;;;;6.23;1.90;;;7.60;96.50;;;;;;5072094;28;20548;-49
2023/04/03 08:33:33;;;;;;;7.53;1.97;;;7.40;97.20;;;;;;5071981;28;20033;-52
2023/04/03 08:35:59;;;;;;;8.83;1.70;;;7.30;95.80;;;;;;5071120;28;20499;-50
2023/04/03 08:38:25;;;;;;;4.43;1.90;;;7.30;96.60;;;;;;5071655;28;20031;-47
2023/04/03 08:41:16;;;;;;;4.83;1.40;;;7.60;93.30;;;;;;5072135;28;20389;-47
2023/04/03 08:44:03;;;;;;;5.10;1.80;;;7.60;93.40;;;;;;5071597;28;20079;-50
2023/04/03 08:46:51;;;;;;;6.07;1.77;;;7.70;93.50;;;;;;5071679;28;20043;-47
2023/04/03 08:49:29;;;;;;;4.40;1.40;;;7.80;93.00;;;;;;5071786;28;20031;-49
2023/04/03 08:51:57;;;;;;;3.80;1.50;;;8.00;93.00;;;;;;5071713;28;20082;-48
2023/04/03 08:54:35;;;;;;;2.70;1.20;;;8.10;89.90;;;;;;5071388;28;20481;-47
2023/04/03 08:57:04;;;;;;;5.93;1.90;;;8.30;92.00;;;;;;5071516;28;20631;-49
2023/04/03 08:59:34;;;;;;;5.55;1.30;;;8.40;91.80;;;;;;5071470;28;20115;-48
2023/04/03 09:02:06;;;;;;;3.47;1.30;;;8.30;92.30;;;;;;5071615;28;20035;-50
2023/04/03 09:04:33;;;;;;;3.20;1.20;;;8.40;90.70;;;;;;5071348;28;20050;-48
2023/04/03 09:07:08;;;;;;;4.50;1.20;;;8.10;88.90;;;;;;5071096;28;20029;-49
2023/04/03 09:09:41;;;;;;;4.30;1.00;;;8.00;88.20;;;;;;5071315;28;20033;-49
2023/04/03 09:12:26;;;;;;;6.43;1.70;;;7.70;89.00;;;;;;5071186;28;20060;-49
2023/04/03 09:15:13;;;;;;;6.20;1.43;;;7.60;90.70;;;;;;5071203;28;20094;-47
2023/04/03 09:17:51;;;;;;;3.23;1.10;;;7.60;91.10;;;;;;5071008;28;20037;-51
2023/04/03 09:20:29;;;;;;;4.40;1.93;;;7.50;88.10;;;;;;5071377;28;20107;-48
2023/04/03 09:22:55;;;;;;;5.27;1.10;;;7.70;83.80;;;;;;5071119;28;20056;-49
2023/04/03 09:25:32;;;;;;;5.10;1.10;;;7.70;83.70;;;;;;5070994;28;20492;-54
2023/04/03 09:28:01;;;;;;;3.50;0.90;;;7.60;84.10;;;;;;5070669;28;20070;-52
2023/04/03 09:30:27;;;;;;;3.57;1.17;;;7.60;83.40;;;;;;5071030;28;20036;-54
2023/04/03 09:32:55;;;;;;;5.30;1.20;;;7.70;82.60;;;;;;5070975;28;20035;-53
2023/04/03 09:35:31;;;;;;;3.10;1.10;;;8.30;77.10;;;;;;5070897;28;20441;-54
2023/04/03 09:38:11;;;;;;;3.83;0.90;;;8.50;78.50;;;;;;5070658;28;20028;-52
2023/04/03 09:40:49;;;;;;;3.23;1.00;;;8.80;77.60;;;;;;5070992;28;20036;-50
2023/04/03 09:43:20;;;;;;;3.60;0.90;;;9.00;71.30;;;;;;5070761;28;20133;-47
2023/04/03 09:45:48;;;;;;;4.13;1.00;;;9.30;74.50;;;;;;5070894;28;20024;-48
2023/04/03 09:48:14;;;;;;;3.73;1.10;;;9.30;72.50;;;;;;5070179;28;20412;-49
2023/04/03 09:51:01;;;;;;;5.03;0.90;;;9.50;71.20;;;;;;5071114;28;20020;-48
2023/04/03 09:53:35;;;;;;;2.17;0.83;;;9.40;73.30;;;;;;5070492;28;20032;-47
2023/04/03 09:56:03;;;;;;;2.77;0.93;;;9.60;67.20;;;;;;5070896;28;20032;-51
2023/04/03 09:58:33;;;;;;;1.97;0.80;;;10.10;70.50;;;;;;5070289;28;20024;-49
2023/04/03 10:01:02;;;;;;;6.13;2.30;;;10.20;69.40;;;;;;5070560;28;20067;-47
2023/04/03 10:03:39;;;;;;;3.53;1.17;;;10.10;62.80;;;;;;5070302;28;20036;-50
2023/04/03 10:06:24;;;;;;;3.00;1.00;;;10.60;60.80;;;;;;5070635;28;20028;-48
2023/04/03 10:09:16;;;;;;;4.63;1.10;;;11.00;56.70;;;;;;5070381;28;20504;-48
2023/04/03 10:12:06;;;;;;;4.60;1.30;;;11.50;57.70;;;;;;5070466;28;20017;-52
2023/04/03 10:14:40;;;;;;;3.05;1.15;;;11.60;58.50;;;;;;5065154;28;20044;-49
2023/04/03 10:17:24;;;;;;;2.17;0.90;;;11.50;57.60;;;;;;5070176;28;20048;-48
2023/04/03 10:20:03;;;;;;;2.60;0.90;;;11.60;56.70;;;;;;5070308;28;20059;-53
2023/04/03 10:22:55;;;;;;;4.47;1.00;;;11.80;51.90;;;;;;5070518;28;20033;-51
2023/04/03 10:25:30;;;;;;;4.05;1.13;;;11.60;56.00;;;;;;5070242;28;20241;-51
2023/04/03 10:28:03;;;;;;;3.42;0.80;;;11.60;53.10;;;;;;5070081;28;20037;-50
2023/04/03 10:30:37;;;;;;;3.42;1.17;;;11.80;53.50;;;;;;5070248;28;20028;-48
2023/04/03 10:33:23;;;;;;;3.13;0.85;;;11.80;52.50;;;;;;5070379;28;20051;-48
2023/04/03 10:36:01;;;;;;;3.80;0.90;;;12.20;51.20;;;;;;5069878;28;20401;-48
2023/04/03 10:38:45;;;;;;;3.33;0.93;;;12.30;52.40;;;;;;5070026;28;20400;-51
2023/04/03 10:41:32;;;;;;;2.97;1.00;;;12.60;52.30;;;;;;5070129;28;20036;-51
2023/04/03 10:44:26;;;;;;;3.30;1.00;;;13.00;51.70;;;;;;5069947;28;20032;-49
2023/04/03 10:47:34;;;;;;;2.95;0.95;;;13.10;50.70;;;;;;5068359;28;20032;-50
2023/04/03 10:50:27;;;;;;;3.15;1.08;;;13.10;51.00;;;;;;5070050;28;20062;-50
2023/04/03 10:53:12;;;;;;;2.75;0.88;;;13.10;52.40;;;;;;5070171;28;20370;-50
2023/04/03 10:55:51;;;;;;;3.35;1.33;;;13.10;53.30;;;;;;5069829;28;20166;-50
2023/04/03 10:58:20;;;;;;;;;;;13.10;51.30;;;;;;5070252;28;20068;-51
2023/04/03 11:00:50;;;;;;;9.30;1.75;;;12.90;50.10;;;;;;5072666;28;20335;-48
2023/04/03 11:03:31;;;;;;;2.58;0.98;;;13.50;50.50;;;;;;5073643;28;20052;-49
2023/04/03 11:06:01;;;;;;;3.15;1.10;;;13.70;50.70;;;;;;5073680;28;20036;-47
2023/04/03 11:08:35;;;;;;;4.65;1.13;;;13.90;50.80;;;;;;5073487;28;20287;-47
2023/04/03 11:11:12;;;;;;;3.55;1.20;;;13.60;50.60;;;;;;5073733;28;20373;-51
2023/04/03 11:14:00;;;;;;;4.18;1.25;;;13.50;51.70;;;;;;5073394;28;20114;-49
2023/04/03 11:16:33;;;;;;;4.85;1.50;;;13.40;50.70;;;;;;5073356;28;20062;-47
2023/04/03 11:19:23;;;;;;;4.13;1.00;;;12.90;52.60;;;;;;5073589;28;20473;-48
2023/04/03 11:21:57;;;;;;;3.65;1.10;;;13.20;53.30;;;;;;5073492;28;20436;-49
2023/04/03 11:24:27;;;;;;;4.25;1.33;;;13.30;52.00;;;;;;5073525;28;20034;-48
2023/04/03 11:26:55;;;;;;;4.55;1.58;;;13.20;53.30;;;;;;5073034;28;20028;-50
2023/04/03 11:29:29;;;;;;;3.75;1.23;;;13.10;53.60;;;;;;5073542;28;20124;-49
2023/04/03 11:32:17;;;;;;;6.28;1.52;;;13.50;52.50;;;;;;5073315;28;20032;-50
2023/04/03 11:34:48;;;;;;;3.97;1.30;;;13.90;51.10;;;;;;5072986;28;20039;-52
2023/04/03 11:37:20;;;;;;;4.38;1.20;;;13.70;52.10;;;;;;5072907;28;20025;-47
2023/04/03 11:39:56;;;;;;;3.17;1.20;;;13.50;53.30;;;;;;5073029;28;20029;-51
2023/04/03 11:42:39;;;;;;;3.35;1.30;;;13.10;53.30;;;;;;5073132;28;20107;-48
2023/04/03 11:45:29;;;;;;;3.60;1.30;;;12.10;56.30;;;;;;5072745;28;20024;-47
2023/04/03 11:48:28;;;;;;;4.22;1.40;;;12.10;59.80;;;;;;5072656;28;20543;-54
2023/04/03 11:50:55;;;;;;;3.13;1.30;;;13.00;54.30;;;;;;5072801;28;20034;-48
2023/04/03 11:53:37;;;;;;;3.53;1.48;;;13.10;54.20;;;;;;5072553;28;20032;-51
2023/04/03 11:56:25;;;;;;;5.53;1.30;;;13.40;53.10;;;;;;5072740;28;20416;-50
2023/04/03 11:59:13;;;;;;;3.90;1.05;;;13.60;54.20;;;;;;5072777;28;20370;-52
2023/04/03 12:01:57;;;;;;;3.65;1.20;;;13.70;54.50;;;;;;5072776;28;20396;-50
2023/04/03 12:04:26;;;;;;;3.42;1.20;;;13.60;55.10;;;;;;5072437;28;20074;-49
2023/04/03 12:07:17;;;;;;;3.35;1.60;;;13.40;52.50;;;;;;5072220;28;20132;-53
2023/04/03 12:09:43;;;;;;;5.00;1.50;;;13.30;51.80;;;;;;5072654;28;20123;-49
2023/04/03 12:12:33;;;;;;;4.78;1.80;;;12.50;54.60;;;;;;5072162;28;20025;-48
2023/04/03 12:15:19;;;;;;;3.75;1.20;;;12.10;57.50;;;;;;5054309;28;20503;-53
2023/04/03 12:17:45;;;;;;;3.50;1.17;;;11.70;57.20;;;;;;5072862;28;20033;-49
2023/04/03 12:20:48;;;;;;;4.72;1.40;;;11.50;58.10;;;;;;5072800;28;20643;-51
2023/04/03 12:23:24;;;;;;;4.47;1.17;;;11.10;55.50;;;;;;5072191;28;20497;-50
2023/04/03 12:25:50;;;;;;;2.67;1.20;;;11.10;56.90;;;;;;5072199;28;20581;-46
2023/04/03 12:28:16;;;;;;;5.60;1.27;;;10.90;55.90;;;;;;5071959;28;20028;-50
2023/04/03 12:30:43;;;;;;;4.77;1.50;;;10.80;54.80;;;;;;5072057;28;20710;-49
2023/04/03 12:33:47;;;;;;;2.53;1.20;;;10.80;58.30;;;;;;5072444;28;20024;-49
2023/04/03 12:36:27;;;;;;;3.47;1.50;;;10.60;54.60;;;;;;5059254;28;20041;-50
2023/04/03 12:39:21;;;;;;;5.73;1.33;;;10.30;55.00;;;;;;5071781;28;20032;-49
2023/04/03 12:42:37;;;;;;;3.77;1.67;;;10.30;58.20;;;;;;5072315;28;20032;-48
2023/04/03 12:45:16;;;;;;;2.73;1.10;;;10.60;62.40;;;;;;5053721;28;20374;-53
2023/04/03 12:47:43;;;;;;;4.82;1.33;;;10.70;57.30;;;;;;5071568;28;20392;-50
2023/04/03 12:50:29;;;;;;;3.43;1.20;;;10.70;57.80;;;;;;5071589;28;20056;-50
2023/04/03 12:53:11;;;;;;;3.13;1.10;;;10.70;57.80;;;;;;5071815;28;20040;-47
2023/04/03 12:55:37;;;;;;;4.03;1.00;;;10.80;58.30;;;;;;5071481;28;20477;-48
2023/04/03 12:58:26;;;;;;;4.17;1.20;;;11.00;58.00;;;;;;5071369;28;20032;-52
2023/04/03 13:01:13;;;;;;;4.47;1.10;;;11.10;57.80;;;;;;5053669;28;20473;-48
2023/04/03 13:03:44;;;;;;;5.37;1.37;;;10.70;55.70;;;;;;5071503;28;20055;-47
2023/04/03 13:06:41;;;;;;;4.23;1.10;;;10.50;56.80;;;;;;5071379;28;20056;-50
2023/04/03 13:09:27;;;;;;;3.43;1.03;;;10.50;58.30;;;;;;5061934;22;20058;-53
2023/04/03 13:12:10;;;;;;;4.50;1.13;;;10.50;58.00;;;;;;5031443;28;20025;-53